Time;durP1;ratioP1;P1;durP2;ratioP2;P2;SDS_P1;SDS_P2;PMS_P1;PMS_P2;Temp;Humidity;BMP_temperature;BMP_pressure;BME280_temperature;BME280_humidity;BME280_pressure;Samples;Min_cycle;Max_cycle;Signal;HPM_P1;HPM_P2
2022/03/03 00:01:23;;;;;;;24.30;16.90;;;1.40;85.50;;;;;;5055249;28;20217;-58
2022/03/03 00:03:52;;;;;;;25.65;17.38;;;1.40;85.70;;;;;;5054846;28;20237;-58
2022/03/03 00:06:19;;;;;;;22.15;15.27;;;1.40;86.10;;;;;;5057201;28;20209;-58
2022/03/03 00:08:46;;;;;;;25.27;18.10;;;1.30;86.20;;;;;;5059314;28;20284;-58
2022/03/03 00:11:13;;;;;;;20.33;16.50;;;1.30;86.50;;;;;;5055880;28;20216;-58
2022/03/03 00:13:40;;;;;;;25.42;17.20;;;1.30;86.80;;;;;;5053124;28;20236;-58
2022/03/03 00:16:08;;;;;;;22.52;16.58;;;1.30;87.00;;;;;;5053002;28;20205;-58
2022/03/03 00:18:35;;;;;;;29.48;18.05;;;1.20;87.10;;;;;;5053384;28;20257;-58
2022/03/03 00:21:04;;;;;;;23.00;17.45;;;1.20;87.30;;;;;;5053347;28;20201;-58
2022/03/03 00:23:32;;;;;;;22.67;16.75;;;1.20;87.40;;;;;;5053849;28;20285;-57
2022/03/03 00:25:59;;;;;;;23.98;17.15;;;1.20;87.50;;;;;;5057488;28;20622;-58
2022/03/03 00:28:26;;;;;;;21.88;17.73;;;1.20;87.80;;;;;;5057565;28;20201;-58
2022/03/03 00:30:53;;;;;;;23.35;16.98;;;1.10;87.90;;;;;;5057771;28;20205;-58
2022/03/03 00:33:20;;;;;;;24.83;18.25;;;1.20;88.30;;;;;;5056685;28;20222;-58
2022/03/03 00:35:47;;;;;;;24.65;17.23;;;1.10;88.40;;;;;;5056945;28;20220;-58
2022/03/03 00:38:16;;;;;;;22.63;17.60;;;1.10;88.60;;;;;;5057264;28;20202;-58
2022/03/03 00:40:43;;;;;;;24.52;17.25;;;1.00;88.70;;;;;;5057717;28;20205;-58
2022/03/03 00:43:10;;;;;;;21.20;16.83;;;1.00;88.90;;;;;;5057466;28;20635;-58
2022/03/03 00:45:38;;;;;;;26.42;16.95;;;1.00;89.20;;;;;;5057258;28;20193;-58
2022/03/03 00:48:07;;;;;;;20.08;16.13;;;0.90;89.40;;;;;;5057025;28;20283;-57
2022/03/03 00:50:35;;;;;;;25.92;17.33;;;0.90;89.80;;;;;;5056859;28;20574;-57
2022/03/03 00:53:02;;;;;;;25.30;18.25;;;0.90;90.00;;;;;;5058744;28;20248;-58
2022/03/03 00:55:30;;;;;;;26.70;17.42;;;0.90;90.20;;;;;;5057710;28;20225;-58
2022/03/03 00:57:57;;;;;;;23.02;16.92;;;0.80;90.30;;;;;;5057749;28;20213;-58
2022/03/03 01:00:25;;;;;;;27.23;17.63;;;0.80;90.40;;;;;;5057980;28;20205;-57
2022/03/03 01:02:52;;;;;;;26.45;18.30;;;0.80;90.50;;;;;;5057634;28;20230;-58
2022/03/03 01:05:19;;;;;;;21.20;17.23;;;0.80;90.50;;;;;;5057206;28;20197;-57
2022/03/03 01:07:47;;;;;;;22.85;16.90;;;0.80;90.60;;;;;;5057205;28;20202;-57
2022/03/03 01:10:14;;;;;;;27.95;18.63;;;0.70;90.70;;;;;;5058898;28;20236;-57
2022/03/03 01:12:43;;;;;;;25.13;18.23;;;0.80;90.60;;;;;;5058653;28;20233;-58
2022/03/03 01:15:11;;;;;;;23.75;17.70;;;0.70;90.50;;;;;;5058590;28;20214;-58
2022/03/03 01:17:38;;;;;;;21.50;16.08;;;0.70;90.50;;;;;;5058126;28;20583;-58
2022/03/03 01:20:08;;;;;;;21.42;16.83;;;0.70;90.70;;;;;;5057419;28;20554;-58
2022/03/03 01:22:36;;;;;;;22.90;16.55;;;0.60;90.70;;;;;;5056968;28;20652;-58
2022/03/03 01:25:03;;;;;;;27.63;17.85;;;0.60;90.80;;;;;;5056921;28;20570;-58
2022/03/03 01:27:32;;;;;;;21.52;17.08;;;0.50;90.90;;;;;;5058269;28;20216;-58
2022/03/03 01:30:02;;;;;;;23.38;17.08;;;0.50;91.00;;;;;;5057489;28;20565;-58
2022/03/03 01:32:30;;;;;;;21.15;15.57;;;0.50;91.10;;;;;;5057038;28;20243;-58
2022/03/03 01:34:57;;;;;;;21.30;16.95;;;0.50;91.10;;;;;;5056696;28;20705;-58
2022/03/03 01:37:24;;;;;;;23.73;19.33;;;0.50;91.10;;;;;;5055766;28;20197;-57
2022/03/03 01:39:51;;;;;;;23.42;18.20;;;0.40;91.00;;;;;;5056098;28;20197;-57
2022/03/03 01:42:19;;;;;;;22.48;17.00;;;0.40;91.00;;;;;;5056023;28;20229;-57
2022/03/03 01:44:47;;;;;;;25.77;17.73;;;0.40;91.10;;;;;;5055950;28;20200;-58
2022/03/03 01:47:21;;;;;;;24.23;16.60;;;0.30;91.20;;;;;;5055781;28;20206;-58
2022/03/03 01:49:49;;;;;;;26.27;17.48;;;0.30;91.30;;;;;;5055714;28;20201;-58
2022/03/03 01:52:16;;;;;;;20.40;16.60;;;0.20;91.40;;;;;;5055321;28;20600;-58
2022/03/03 01:54:44;;;;;;;22.50;17.50;;;0.20;91.40;;;;;;5055547;28;20589;-58
2022/03/03 01:57:11;;;;;;;25.38;17.60;;;0.10;91.50;;;;;;5055595;28;20202;-58
2022/03/03 01:59:39;;;;;;;27.65;18.00;;;0.10;91.70;;;;;;5055488;28;20213;-59
2022/03/03 02:02:08;;;;;;;24.20;17.08;;;0.10;91.80;;;;;;5055480;28;20229;-57
2022/03/03 02:04:36;;;;;;;21.35;16.80;;;0.00;91.80;;;;;;5055758;28;20243;-59
2022/03/03 02:07:04;;;;;;;23.52;17.48;;;0.00;91.90;;;;;;5055608;28;20209;-59
2022/03/03 02:09:31;;;;;;;23.27;17.73;;;0.00;92.00;;;;;;5055657;28;20201;-59
2022/03/03 02:11:58;;;;;;;29.40;17.83;;;-0.10;91.90;;;;;;5055808;28;20218;-59
2022/03/03 02:14:25;;;;;;;24.60;17.52;;;-0.10;91.90;;;;;;5056237;28;20240;-59
2022/03/03 02:16:52;;;;;;;24.55;16.95;;;-0.10;91.90;;;;;;5056111;28;20201;-59
2022/03/03 02:19:21;;;;;;;24.17;17.45;;;-0.10;92.00;;;;;;5056712;28;20202;-55
2022/03/03 02:21:52;;;;;;;29.05;18.00;;;-0.20;92.00;;;;;;5054741;28;20218;-58
2022/03/03 02:24:20;;;;;;;24.70;17.58;;;-0.20;92.00;;;;;;5054868;28;20178;-58
2022/03/03 02:26:48;;;;;;;20.42;16.42;;;-0.20;92.10;;;;;;5059652;28;20202;-58
2022/03/03 02:29:15;;;;;;;24.25;17.50;;;-0.20;92.20;;;;;;5056893;28;20212;-59
2022/03/03 02:31:44;;;;;;;23.17;17.05;;;-0.20;92.20;;;;;;5055593;28;20213;-58
2022/03/03 02:34:11;;;;;;;24.83;17.60;;;-0.30;92.20;;;;;;5056028;28;20228;-57
2022/03/03 02:36:38;;;;;;;22.05;16.15;;;-0.30;92.30;;;;;;5056633;28;20670;-58
2022/03/03 02:39:07;;;;;;;22.90;16.20;;;-0.30;92.30;;;;;;5055370;28;20201;-58
2022/03/03 02:41:34;;;;;;;22.90;16.92;;;-0.30;92.30;;;;;;5055443;28;20232;-58
2022/03/03 02:44:02;;;;;;;25.77;17.00;;;-0.30;92.40;;;;;;5058758;28;20760;-56
2022/03/03 02:46:29;;;;;;;23.13;16.00;;;-0.30;92.50;;;;;;5056367;28;20292;-58
2022/03/03 02:48:56;;;;;;;22.90;16.10;;;-0.30;92.40;;;;;;5055772;28;20345;-58
2022/03/03 02:51:24;;;;;;;25.50;17.25;;;-0.30;92.60;;;;;;5057281;28;20221;-58
2022/03/03 02:53:51;;;;;;;25.08;16.35;;;-0.20;92.50;;;;;;5055322;28;20221;-58
2022/03/03 02:56:19;;;;;;;23.45;17.35;;;-0.20;92.50;;;;;;5055070;28;20222;-59
2022/03/03 02:58:45;;;;;;;20.05;15.75;;;-0.20;92.30;;;;;;5055018;28;20213;-58
2022/03/03 03:01:12;;;;;;;24.00;17.77;;;-0.30;92.30;;;;;;5054962;28;20284;-58
2022/03/03 03:03:40;;;;;;;25.30;17.92;;;-0.30;92.30;;;;;;5054559;28;20233;-58
2022/03/03 03:06:07;;;;;;;22.25;16.20;;;-0.30;92.50;;;;;;5054052;28;20568;-57
2022/03/03 03:08:34;;;;;;;23.27;16.85;;;-0.40;92.50;;;;;;5054084;28;20205;-57
2022/03/03 03:11:01;;;;;;;22.65;17.33;;;-0.40;92.60;;;;;;5054762;28;20205;-57
2022/03/03 03:13:30;;;;;;;25.27;18.23;;;-0.40;92.70;;;;;;5055223;28;20591;-59
2022/03/03 03:15:57;;;;;;;24.45;16.48;;;-0.40;92.70;;;;;;5055006;28;20225;-57
2022/03/03 03:18:24;;;;;;;27.45;17.92;;;-0.40;92.80;;;;;;5054774;28;20209;-57
2022/03/03 03:20:52;;;;;;;27.17;17.50;;;-0.50;92.90;;;;;;5054779;28;20208;-57
2022/03/03 03:23:22;;;;;;;26.40;17.63;;;-0.50;92.90;;;;;;5053603;28;20288;-57
2022/03/03 03:25:49;;;;;;;19.90;16.90;;;-0.50;93.00;;;;;;5053627;28;20331;-57
2022/03/03 03:28:19;;;;;;;23.58;17.73;;;-0.50;92.90;;;;;;5053794;28;20202;-57
2022/03/03 03:30:48;;;;;;;24.13;17.00;;;-0.50;92.90;;;;;;5053606;28;20318;-58
2022/03/03 03:33:15;;;;;;;26.55;16.85;;;-0.50;92.90;;;;;;5053278;28;20221;-57
2022/03/03 03:35:42;;;;;;;23.70;17.48;;;-0.50;92.90;;;;;;5053296;28;20721;-58
2022/03/03 03:38:09;;;;;;;23.80;16.38;;;-0.50;93.00;;;;;;5053461;28;20200;-58
2022/03/03 03:40:36;;;;;;;27.83;19.30;;;-0.50;93.10;;;;;;5053596;28;20197;-58
2022/03/03 03:43:04;;;;;;;31.73;17.38;;;-0.60;93.00;;;;;;5053481;28;20229;-58
2022/03/03 03:45:31;;;;;;;21.98;17.00;;;-0.60;93.30;;;;;;5054172;28;20224;-58
2022/03/03 03:48:00;;;;;;;24.10;17.15;;;-0.60;93.40;;;;;;5053984;28;20283;-58
2022/03/03 03:50:28;;;;;;;24.75;18.23;;;-0.60;93.40;;;;;;5054061;28;20584;-58
2022/03/03 03:52:55;;;;;;;23.13;17.38;;;-0.60;93.50;;;;;;5053672;28;20662;-58
2022/03/03 03:55:23;;;;;;;23.35;17.45;;;-0.70;93.60;;;;;;5053209;28;20573;-58
2022/03/03 03:57:50;;;;;;;20.70;17.42;;;-0.70;93.80;;;;;;5053385;28;20206;-58
2022/03/03 04:00:17;;;;;;;23.13;17.77;;;-0.70;93.70;;;;;;5053140;28;20230;-58
2022/03/03 04:02:46;;;;;;;24.90;18.75;;;-0.70;93.80;;;;;;5052774;28;20600;-57
2022/03/03 04:05:15;;;;;;;25.92;18.35;;;-0.80;94.00;;;;;;5053145;28;20198;-58
2022/03/03 04:09:23;;;;;;;25.75;17.83;;;-0.80;94.00;;;;;;5111791;27;20556;-56
2022/03/03 04:11:50;;;;;;;24.90;19.27;;;-0.80;94.10;;;;;;5110812;28;20219;-57
2022/03/03 04:14:17;;;;;;;27.40;19.05;;;-0.80;94.20;;;;;;5110944;28;20200;-57
2022/03/03 04:16:44;;;;;;;22.83;18.52;;;-0.80;94.40;;;;;;5111131;28;20207;-57
2022/03/03 04:19:11;;;;;;;24.38;17.85;;;-0.80;94.40;;;;;;5110824;28;20207;-56
2022/03/03 04:21:38;;;;;;;27.08;17.92;;;-0.80;94.40;;;;;;5121689;22;20696;-62
2022/03/03 04:24:06;;;;;;;25.38;17.98;;;-0.80;94.30;;;;;;5092505;28;20201;-62
2022/03/03 04:26:35;;;;;;;25.50;19.33;;;-0.80;94.30;;;;;;5093044;28;20213;-62
2022/03/03 04:29:02;;;;;;;23.08;17.45;;;-0.80;94.50;;;;;;5091809;28;20625;-62
2022/03/03 04:31:29;;;;;;;20.40;17.05;;;-0.80;94.50;;;;;;5091535;28;20596;-63
2022/03/03 04:33:56;;;;;;;23.77;17.25;;;-0.90;94.60;;;;;;5091422;28;20656;-62
2022/03/03 04:36:23;;;;;;;26.58;17.85;;;-0.90;94.70;;;;;;5090949;28;20704;-63
2022/03/03 04:38:51;;;;;;;21.67;16.40;;;-0.90;94.70;;;;;;5090809;28;20200;-62
2022/03/03 04:41:18;;;;;;;37.58;18.25;;;-0.90;94.70;;;;;;5090339;28;20700;-62
2022/03/03 04:43:47;;;;;;;23.33;16.88;;;-1.00;94.80;;;;;;5090819;28;20211;-62
2022/03/03 04:46:14;;;;;;;27.48;17.90;;;-1.00;94.80;;;;;;5094852;28;20205;-62
2022/03/03 04:48:41;;;;;;;22.05;17.38;;;-1.10;94.90;;;;;;5101403;28;20221;-61
2022/03/03 04:51:08;;;;;;;23.65;16.52;;;-1.10;95.00;;;;;;5101071;28;20588;-63
2022/03/03 04:53:36;;;;;;;25.30;17.42;;;-1.20;95.40;;;;;;5099807;28;20573;-62
2022/03/03 04:56:03;;;;;;;23.85;18.08;;;-1.20;95.30;;;;;;5094408;28;20212;-61
2022/03/03 04:58:30;;;;;;;26.15;19.20;;;-1.20;95.50;;;;;;5091016;28;20207;-62
2022/03/03 05:00:58;;;;;;;28.23;18.27;;;-1.30;95.50;;;;;;5089882;28;20220;-62
2022/03/03 05:03:25;;;;;;;22.25;17.38;;;-1.30;95.60;;;;;;5090148;28;20205;-62
2022/03/03 05:05:52;;;;;;;22.63;17.75;;;-1.30;95.70;;;;;;5090421;28;20215;-62
2022/03/03 05:08:19;;;;;;;24.85;16.90;;;-1.30;95.80;;;;;;5089886;28;20216;-62
2022/03/03 05:10:46;;;;;;;27.05;18.40;;;-1.30;96.00;;;;;;5089367;28;20225;-62
2022/03/03 05:13:14;;;;;;;26.60;19.08;;;-1.30;96.10;;;;;;5089491;28;20204;-63
2022/03/03 05:15:41;;;;;;;23.58;16.77;;;-1.30;96.00;;;;;;5089499;28;20283;-61
2022/03/03 05:18:09;;;;;;;26.58;17.15;;;-1.30;96.10;;;;;;5089513;28;20207;-61
2022/03/03 05:20:38;;;;;;;28.58;18.40;;;-1.40;96.20;;;;;;5076706;28;20236;-61
2022/03/03 05:23:05;;;;;;;22.90;17.42;;;-1.40;96.20;;;;;;5076219;28;20339;-62
2022/03/03 05:25:32;;;;;;;29.08;20.02;;;-1.40;96.40;;;;;;5076141;28;20201;-62
2022/03/03 05:28:01;;;;;;;27.27;18.73;;;-1.40;96.50;;;;;;5076024;28;20707;-62
2022/03/03 05:30:28;;;;;;;27.50;18.20;;;-1.50;96.50;;;;;;5076722;28;20256;-62
2022/03/03 05:32:55;;;;;;;27.42;17.80;;;-1.50;96.60;;;;;;5076232;28;20578;-61
2022/03/03 05:35:24;;;;;;;26.10;18.80;;;-1.50;96.70;;;;;;5075743;28;20619;-62
2022/03/03 05:37:51;;;;;;;31.30;19.50;;;-1.40;96.80;;;;;;5075454;28;20200;-63
2022/03/03 05:40:18;;;;;;;27.52;19.77;;;-1.40;96.90;;;;;;5075550;28;20304;-61
2022/03/03 05:42:45;;;;;;;32.28;21.27;;;-1.40;96.90;;;;;;5075669;28;20207;-61
2022/03/03 05:45:13;;;;;;;29.25;20.35;;;-1.40;97.10;;;;;;5075683;28;20298;-62
2022/03/03 05:47:41;;;;;;;26.50;19.98;;;-1.40;97.00;;;;;;5075276;28;20197;-62
2022/03/03 05:50:10;;;;;;;26.80;19.70;;;-1.40;97.10;;;;;;5075180;28;20197;-62
2022/03/03 05:52:38;;;;;;;34.00;17.83;;;-1.40;97.00;;;;;;5075585;28;20239;-62
2022/03/03 05:55:06;;;;;;;30.17;21.02;;;-1.40;97.10;;;;;;5075102;28;20672;-61
2022/03/03 05:57:36;;;;;;;36.53;21.48;;;-1.50;97.10;;;;;;5075272;28;20205;-62
2022/03/03 06:00:08;;;;;;;34.90;20.05;;;-1.50;97.20;;;;;;5075372;28;20295;-63
2022/03/03 06:02:36;;;;;;;28.27;20.02;;;-1.50;97.50;;;;;;5074922;28;20189;-60
2022/03/03 06:05:04;;;;;;;30.10;21.83;;;-1.50;97.70;;;;;;5075424;28;20288;-61
2022/03/03 06:07:39;;;;;;;34.75;21.48;;;-1.50;98.00;;;;;;5075216;28;20258;-60
2022/03/03 06:10:09;;;;;;;31.38;20.65;;;-1.40;98.20;;;;;;5074768;28;20688;-61
2022/03/03 06:12:42;;;;;;;35.35;22.48;;;-1.40;98.00;;;;;;5075250;28;20189;-62
2022/03/03 06:15:12;;;;;;;34.35;23.15;;;-1.30;98.20;;;;;;5075090;28;20559;-61
2022/03/03 06:17:43;;;;;;;34.75;22.38;;;-1.30;98.30;;;;;;5079182;28;20197;-60
2022/03/03 06:20:13;;;;;;;35.00;23.30;;;-1.30;98.30;;;;;;5077182;28;20691;-61
2022/03/03 06:22:40;;;;;;;34.90;22.85;;;-1.20;98.60;;;;;;5077218;28;20296;-60
2022/03/03 06:25:10;;;;;;;32.97;23.30;;;-1.20;98.60;;;;;;5075869;28;20288;-61
2022/03/03 06:27:38;;;;;;;36.88;24.70;;;-1.20;98.80;;;;;;5077375;28;20277;-61
2022/03/03 06:30:06;;;;;;;34.08;22.10;;;-1.10;98.80;;;;;;5076728;28;20205;-62
2022/03/03 06:32:33;;;;;;;37.58;23.75;;;-1.10;98.90;;;;;;5074316;28;20208;-61
2022/03/03 06:35:01;;;;;;;38.40;24.60;;;-1.10;99.20;;;;;;5075077;28;20296;-61
2022/03/03 06:37:28;;;;;;;34.13;23.23;;;-1.10;99.40;;;;;;5074842;28;20250;-62
2022/03/03 06:39:55;;;;;;;41.67;25.92;;;-1.00;99.50;;;;;;5075116;28;20200;-61
2022/03/03 06:42:24;;;;;;;32.45;22.52;;;-1.00;99.60;;;;;;5074860;28;20313;-62
2022/03/03 06:44:52;;;;;;;37.70;25.25;;;-0.90;99.70;;;;;;5075126;28;20608;-62
2022/03/03 06:47:19;;;;;;;37.38;22.45;;;-0.90;99.80;;;;;;5074266;28;20201;-64
2022/03/03 06:49:47;;;;;;;38.20;23.40;;;-0.80;99.90;;;;;;5074485;28;20220;-62
2022/03/03 06:52:17;;;;;;;34.20;23.85;;;-0.70;99.90;;;;;;5074727;28;20244;-62
2022/03/03 06:54:45;;;;;;;36.17;23.08;;;-0.60;99.90;;;;;;5074944;28;20201;-60
2022/03/03 06:57:13;;;;;;;34.63;24.27;;;-0.50;99.90;;;;;;5075116;28;20201;-61
2022/03/03 06:59:41;;;;;;;36.42;23.25;;;-0.50;99.90;;;;;;5075055;28;20192;-61
2022/03/03 07:02:09;;;;;;;35.13;25.17;;;-0.40;99.90;;;;;;5074614;28;20303;-61
2022/03/03 07:04:37;;;;;;;35.63;23.65;;;-0.40;99.80;;;;;;5074255;28;20196;-64
2022/03/03 07:07:04;;;;;;;36.95;25.13;;;-0.30;99.90;;;;;;5074832;28;20577;-62
2022/03/03 07:09:31;;;;;;;34.25;23.83;;;-0.30;99.90;;;;;;5074401;28;20238;-62
2022/03/03 07:12:01;;;;;;;41.70;26.85;;;-0.20;99.80;;;;;;5074010;28;20224;-62
2022/03/03 07:14:29;;;;;;;36.05;24.35;;;-0.10;99.70;;;;;;5073978;28;20775;-62
2022/03/03 07:17:02;;;;;;;38.70;25.95;;;0.00;99.70;;;;;;5073845;28;20262;-62
2022/03/03 07:19:50;;;;;;;39.83;24.70;;;0.10;99.60;;;;;;5074539;28;20186;-62
2022/03/03 07:22:20;;;;;;;36.50;23.80;;;0.20;99.50;;;;;;5073618;28;20236;-62
2022/03/03 07:24:52;;;;;;;41.10;25.27;;;0.40;99.40;;;;;;5074348;28;20189;-62
2022/03/03 07:27:21;;;;;;;38.45;24.50;;;0.50;99.20;;;;;;5074576;28;20192;-60
2022/03/03 07:29:59;;;;;;;33.47;23.67;;;0.70;99.00;;;;;;5073605;28;20700;-63
2022/03/03 07:32:34;;;;;;;34.88;22.80;;;0.80;98.60;;;;;;5073708;28;20192;-62
2022/03/03 07:35:06;;;;;;;34.55;24.83;;;0.90;98.30;;;;;;5074942;28;20245;-61
2022/03/03 07:37:37;;;;;;;34.05;21.88;;;1.00;98.10;;;;;;5074808;28;20189;-61
2022/03/03 07:40:07;;;;;;;33.00;23.38;;;1.10;97.80;;;;;;5074178;28;20659;-63
2022/03/03 07:42:35;;;;;;;35.60;21.35;;;1.20;97.60;;;;;;5074623;28;20196;-62
2022/03/03 07:45:03;;;;;;;29.83;22.40;;;1.30;97.40;;;;;;5074225;28;20208;-63
2022/03/03 07:47:32;;;;;;;31.45;21.80;;;1.40;97.20;;;;;;5074474;28;20205;-62
2022/03/03 07:49:59;;;;;;;30.27;21.38;;;1.60;96.90;;;;;;5074089;28;20217;-62
2022/03/03 07:52:28;;;;;;;29.55;19.48;;;1.70;96.40;;;;;;5073824;28;20225;-62
2022/03/03 07:54:55;;;;;;;31.77;21.35;;;1.80;95.60;;;;;;5074426;28;20205;-61
2022/03/03 07:57:25;;;;;;;27.42;21.10;;;1.80;95.00;;;;;;5073837;28;20204;-64
2022/03/03 07:59:58;;;;;;;27.52;20.15;;;1.80;94.70;;;;;;5073957;28;20240;-63
2022/03/03 08:02:26;;;;;;;31.00;21.65;;;1.90;94.70;;;;;;5075319;28;20271;-62
2022/03/03 08:04:55;;;;;;;28.02;19.70;;;1.90;94.30;;;;;;5075045;28;20707;-66
2022/03/03 08:07:22;;;;;;;27.35;21.58;;;2.00;93.90;;;;;;5074966;28;20208;-65
2022/03/03 08:09:52;;;;;;;28.05;22.65;;;2.00;93.70;;;;;;5077812;28;20221;-66
2022/03/03 08:12:22;;;;;;;31.30;23.15;;;2.10;93.60;;;;;;5077338;28;20231;-64
2022/03/03 08:14:51;;;;;;;30.83;21.98;;;2.30;93.30;;;;;;5075855;28;20197;-64
2022/03/03 08:17:18;;;;;;;29.00;21.35;;;2.40;93.00;;;;;;5074310;28;20692;-63
2022/03/03 08:19:45;;;;;;;28.67;22.73;;;2.50;92.50;;;;;;5083005;28;20440;-63
2022/03/03 08:22:15;;;;;;;27.52;21.38;;;2.60;92.00;;;;;;5084727;28;20229;-65
2022/03/03 08:24:43;;;;;;;29.85;20.92;;;2.70;91.70;;;;;;5084649;28;20602;-64
2022/03/03 08:27:12;;;;;;;25.13;20.13;;;2.80;91.40;;;;;;5082198;28;20201;-63
2022/03/03 08:29:40;;;;;;;29.15;21.50;;;2.90;90.90;;;;;;5074358;28;20248;-63
2022/03/03 08:32:11;;;;;;;30.08;21.65;;;3.00;90.60;;;;;;5074713;28;20307;-62
2022/03/03 08:34:51;;;;;;;29.50;22.08;;;3.10;90.40;;;;;;5074658;28;20182;-63
2022/03/03 08:37:29;;;;;;;26.15;21.00;;;3.20;89.90;;;;;;5076123;28;20185;-64
2022/03/03 08:39:58;;;;;;;28.75;21.23;;;3.30;88.90;;;;;;5075819;28;20189;-61
2022/03/03 08:42:28;;;;;;;27.05;20.65;;;3.30;87.80;;;;;;5075888;28;20732;-62
2022/03/03 08:45:02;;;;;;;29.17;21.63;;;3.30;86.80;;;;;;5075592;28;20461;-61
2022/03/03 08:47:30;;;;;;;32.33;21.83;;;3.20;86.50;;;;;;5077139;28;20214;-62
2022/03/03 08:50:00;;;;;;;30.33;22.85;;;3.20;86.60;;;;;;5079605;28;20251;-62
2022/03/03 08:52:28;;;;;;;31.75;21.70;;;3.30;86.00;;;;;;5084239;28;20221;-62
2022/03/03 08:54:56;;;;;;;26.60;20.67;;;3.30;85.10;;;;;;5084219;28;20235;-62
2022/03/03 08:57:23;;;;;;;28.73;22.65;;;3.40;85.10;;;;;;5086247;28;20197;-65
2022/03/03 08:59:51;;;;;;;29.95;22.50;;;3.40;84.90;;;;;;5077921;28;20208;-64
2022/03/03 09:02:18;;;;;;;26.35;21.80;;;3.50;84.50;;;;;;5077483;28;20224;-63
2022/03/03 09:04:46;;;;;;;30.77;23.02;;;3.50;84.20;;;;;;5077304;28;20197;-64
2022/03/03 09:07:13;;;;;;;29.90;21.73;;;3.60;83.90;;;;;;5077180;28;20225;-64
2022/03/03 09:09:42;;;;;;;29.25;21.27;;;3.60;83.40;;;;;;5077617;28;20220;-63
2022/03/03 09:12:09;;;;;;;28.58;21.83;;;3.70;83.70;;;;;;5076662;28;20274;-64
2022/03/03 09:14:36;;;;;;;28.40;21.45;;;3.80;82.70;;;;;;5076771;28;20239;-64
2022/03/03 09:17:04;;;;;;;27.45;21.25;;;4.00;82.40;;;;;;5077078;28;20466;-63
2022/03/03 09:19:31;;;;;;;28.98;21.73;;;4.20;81.80;;;;;;5076444;28;20201;-63
2022/03/03 09:21:58;;;;;;;30.95;19.95;;;4.40;81.00;;;;;;5081600;28;20240;-64
2022/03/03 09:24:25;;;;;;;30.35;23.75;;;4.60;80.10;;;;;;5086999;28;20209;-62
2022/03/03 09:26:55;;;;;;;33.05;22.00;;;4.80;78.50;;;;;;5088401;28;20201;-63
2022/03/03 09:29:22;;;;;;;29.27;21.73;;;4.90;77.00;;;;;;5087869;28;20225;-63
2022/03/03 09:31:50;;;;;;;29.70;22.27;;;5.00;76.50;;;;;;5087904;28;20221;-62
2022/03/03 09:34:18;;;;;;;29.10;22.27;;;5.10;76.10;;;;;;5084096;28;20200;-63
2022/03/03 09:36:45;;;;;;;35.05;22.95;;;5.20;75.00;;;;;;5085797;28;20232;-64
2022/03/03 09:39:12;;;;;;;28.88;20.42;;;5.30;74.10;;;;;;5082997;28;20223;-64
2022/03/03 09:41:39;;;;;;;28.35;21.60;;;5.40;72.20;;;;;;5082210;28;20232;-64
2022/03/03 09:44:07;;;;;;;26.05;21.00;;;5.40;71.90;;;;;;5082438;28;20220;-65
2022/03/03 09:46:36;;;;;;;33.60;21.98;;;5.40;71.30;;;;;;5082331;28;20205;-63
2022/03/03 09:49:04;;;;;;;29.95;22.00;;;5.50;70.20;;;;;;5081705;28;20213;-64
2022/03/03 09:51:31;;;;;;;29.85;22.25;;;5.50;69.10;;;;;;5081171;28;20221;-64
2022/03/03 09:53:59;;;;;;;27.50;20.85;;;5.60;67.90;;;;;;5079445;28;20197;-64
2022/03/03 09:56:26;;;;;;;26.48;21.45;;;5.60;67.30;;;;;;5080210;28;20205;-65
2022/03/03 09:58:53;;;;;;;31.63;21.77;;;5.60;66.40;;;;;;5080474;28;20234;-64
2022/03/03 10:01:22;;;;;;;29.88;20.20;;;5.60;65.80;;;;;;5080183;28;20247;-64
2022/03/03 10:03:49;;;;;;;32.15;22.52;;;5.60;65.20;;;;;;5080938;28;20244;-64
2022/03/03 10:06:16;;;;;;;27.40;21.67;;;5.70;64.50;;;;;;5079364;28;20212;-63
2022/03/03 10:08:43;;;;;;;26.52;19.98;;;5.80;64.00;;;;;;5077877;28;20208;-65
2022/03/03 10:11:10;;;;;;;29.25;22.02;;;5.80;63.70;;;;;;5078224;28;20225;-64
2022/03/03 10:13:48;;;;;;;30.90;21.85;;;5.90;63.60;;;;;;5078578;28;20627;-63
2022/03/03 10:16:26;;;;;;;30.27;19.45;;;6.00;63.40;;;;;;5078469;28;20209;-63
2022/03/03 10:19:04;;;;;;;29.40;19.20;;;6.10;62.10;;;;;;5076528;28;20192;-64
2022/03/03 10:21:32;;;;;;;25.23;18.55;;;6.20;61.10;;;;;;5077195;28;20274;-64
2022/03/03 10:24:01;;;;;;;26.90;19.90;;;6.40;60.20;;;;;;5076436;28;20201;-64
2022/03/03 10:26:38;;;;;;;25.60;18.77;;;6.60;59.50;;;;;;5076406;28;20201;-64
2022/03/03 10:29:16;;;;;;;25.00;19.58;;;6.80;58.70;;;;;;5075747;28;20334;-64
2022/03/03 10:31:49;;;;;;;25.73;18.83;;;7.00;57.80;;;;;;5075710;28;20228;-64
2022/03/03 10:34:18;;;;;;;24.33;19.27;;;7.20;57.10;;;;;;5077017;28;20204;-64
2022/03/03 10:36:45;;;;;;;24.20;20.15;;;7.30;56.50;;;;;;5079096;28;20205;-64
2022/03/03 10:39:16;;;;;;;24.48;19.23;;;7.40;55.50;;;;;;5083069;28;20208;-63
2022/03/03 10:41:46;;;;;;;24.35;19.20;;;7.50;54.90;;;;;;5084727;28;20225;-61
2022/03/03 10:44:16;;;;;;;23.92;18.40;;;7.50;54.00;;;;;;5085315;28;20678;-66
2022/03/03 10:47:04;;;;;;;27.33;19.45;;;7.40;53.30;;;;;;5079329;28;20645;-67
2022/03/03 10:49:31;;;;;;;23.05;18.40;;;7.40;53.20;;;;;;5077277;28;20205;-64
2022/03/03 10:52:11;;;;;;;25.85;17.88;;;7.30;53.00;;;;;;5076339;28;20229;-65
2022/03/03 10:54:53;;;;;;;24.27;20.02;;;7.30;52.90;;;;;;5075518;28;20217;-65
2022/03/03 10:57:41;;;;;;;29.58;19.85;;;7.30;52.90;;;;;;5074691;28;20277;-64
2022/03/03 11:00:12;;;;;;;24.85;19.40;;;7.50;53.10;;;;;;5070904;28;20222;-64
2022/03/03 11:02:41;;;;;;;22.48;18.45;;;7.70;52.90;;;;;;5074800;28;20212;-66
2022/03/03 11:05:11;;;;;;;28.10;19.52;;;7.80;52.70;;;;;;5074972;28;20695;-67
2022/03/03 11:07:41;;;;;;;25.70;20.00;;;8.10;52.50;;;;;;5076248;28;20204;-67
2022/03/03 11:10:09;;;;;;;25.35;20.00;;;8.20;52.00;;;;;;5075050;28;20247;-65
2022/03/03 11:12:36;;;;;;;24.38;20.50;;;8.20;51.70;;;;;;5075274;28;20201;-66
2022/03/03 11:15:04;;;;;;;29.92;21.48;;;8.20;51.90;;;;;;5076411;28;20708;-66
2022/03/03 11:17:32;;;;;;;27.13;20.55;;;8.40;52.00;;;;;;5075772;28;20574;-65
2022/03/03 11:20:01;;;;;;;27.95;20.10;;;8.50;51.80;;;;;;5075479;28;20250;-66
2022/03/03 11:22:31;;;;;;;24.90;18.70;;;8.50;51.60;;;;;;5074848;28;20214;-66
2022/03/03 11:24:59;;;;;;;23.42;18.70;;;8.50;51.40;;;;;;5074216;28;20205;-64
2022/03/03 11:27:34;;;;;;;24.33;18.55;;;8.50;51.10;;;;;;5074728;28;20224;-64
2022/03/03 11:30:19;;;;;;;23.05;20.05;;;8.50;50.80;;;;;;5074198;28;20699;-65
2022/03/03 11:32:47;;;;;;;32.00;20.20;;;8.60;50.50;;;;;;5082518;28;20200;-66
2022/03/03 11:35:18;;;;;;;26.65;19.70;;;8.60;50.20;;;;;;5080822;28;20219;-67
2022/03/03 11:37:46;;;;;;;22.98;19.10;;;8.70;50.30;;;;;;5075440;28;20196;-66
2022/03/03 11:40:19;;;;;;;23.23;19.30;;;8.90;50.20;;;;;;5074370;28;20201;-65
2022/03/03 11:42:49;;;;;;;30.90;20.33;;;8.90;49.50;;;;;;5073864;28;20200;-64
2022/03/03 11:45:22;;;;;;;25.98;19.40;;;8.80;49.70;;;;;;5074155;28;20221;-66
2022/03/03 11:47:50;;;;;;;25.70;20.35;;;8.80;49.70;;;;;;5074531;28;20201;-66
2022/03/03 11:50:25;;;;;;;28.88;19.40;;;8.70;50.10;;;;;;5073984;28;20259;-65
2022/03/03 11:53:15;;;;;;;23.75;18.40;;;8.70;49.70;;;;;;5073617;28;20185;-64
2022/03/03 11:55:44;;;;;;;27.35;19.75;;;8.80;49.80;;;;;;5074883;28;20189;-66
2022/03/03 11:58:12;;;;;;;23.75;18.90;;;9.00;49.60;;;;;;5073393;28;20205;-66
2022/03/03 12:00:42;;;;;;;24.23;19.17;;;9.10;49.30;;;;;;5073946;28;20217;-65
2022/03/03 12:03:11;;;;;;;26.42;19.55;;;9.30;49.20;;;;;;5073229;28;20475;-66
2022/03/03 12:05:47;;;;;;;23.25;18.90;;;9.30;48.80;;;;;;5073597;28;20227;-65
2022/03/03 12:08:32;;;;;;;23.83;18.20;;;9.20;48.70;;;;;;5072834;28;20272;-64
2022/03/03 12:11:09;;;;;;;25.13;18.77;;;9.20;47.90;;;;;;5073198;28;21005;-63
2022/03/03 12:13:44;;;;;;;20.52;16.80;;;9.20;48.10;;;;;;5073303;28;20189;-66
2022/03/03 12:16:20;;;;;;;27.85;18.10;;;9.30;47.30;;;;;;5074156;28;20192;-66
2022/03/03 12:18:49;;;;;;;21.02;16.85;;;9.20;46.90;;;;;;5073075;28;20750;-66
2022/03/03 12:21:33;;;;;;;20.02;16.45;;;9.30;47.50;;;;;;5073277;28;20220;-66
2022/03/03 12:24:33;;;;;;;22.00;17.15;;;9.30;46.20;;;;;;5086648;28;20205;-65
2022/03/03 12:27:18;;;;;;;20.77;16.88;;;9.10;46.40;;;;;;5086731;28;20530;-65
2022/03/03 12:29:52;;;;;;;21.40;16.05;;;9.10;45.80;;;;;;5086381;28;20188;-66
2022/03/03 12:32:46;;;;;;;21.40;16.13;;;9.00;45.70;;;;;;5078627;28;20701;-65
2022/03/03 12:35:24;;;;;;;19.80;15.45;;;9.10;45.50;;;;;;5076849;28;20415;-65
2022/03/03 12:37:53;;;;;;;21.58;14.95;;;9.20;45.20;;;;;;5076920;28;20618;-66
2022/03/03 12:40:25;;;;;;;17.30;13.45;;;9.30;45.00;;;;;;5077666;28;20207;-64
2022/03/03 12:42:53;;;;;;;16.10;12.37;;;9.40;44.80;;;;;;5078274;28;20215;-62
2022/03/03 12:45:21;;;;;;;18.60;12.90;;;9.60;44.60;;;;;;5078044;28;20450;-65